Terminal Aerodrome Forecast
Issued by NWS

Home | Current Version | Previous Version | Graphics & Text | Print | Product List | Glossary On
Versions: 1 2 3 4 5 6 7 8 9 10 11 12 13 14 15 16
085
FTUS43 KGRB 252331
TAFAUW
TAF
KAUW 252331Z 2600/2624 VRB03KT P6SM FEW050 BKN090
     FM261600 15006KT P6SM BKN045
     FM262100 17007KT P6SM VCSH BKN035=

USA.gov is the U.S. government's official web portal to all federal, state and local government web resources and services.